Flight Track Log - Related Links

Times and Time Zones

All times are in EDT time to prevent confusion due to time zone crossing. See the QXE2743 flight status page for this flight to view local times or setup timezone preferences in your user account.

Time Position Orientation Groundspeed Altitude Reporting Facility
EDT Latitude Longitude Course Direction KTS MPH feet Rate Location/Type
Tue 03:27:00 PM 47.2401 -114.7869 296° West  Level FlightAware Approximate
Tue 03:28:00 PM 47.2712 -114.8984 282° West  Level FlightAware Approximate
Tue 03:29:00 PM 47.2929 -115.0150 294° West  Level FlightAware Approximate
Tue 03:30:00 PM 47.3262 -115.1261 294° West  Level FlightAware Approximate
Tue 03:31:00 PM 47.3536 -115.2406 288° West  Level FlightAware Approximate
Tue 03:32:00 PM 47.3792 -115.3561 288° West  Level FlightAware Approximate
Tue 03:33:00 PM 47.4058 -115.4712 292° West  Level FlightAware Approximate
Tue 03:34:00 PM 47.4366 -115.5841 292° West  Level FlightAware Approximate
Tue 03:35:00 PM 47.4511 -115.7020 275° West  Level FlightAware Approximate
Tue 03:36:00 PM 47.4584 -115.8233 275° West  Level FlightAware Approximate
Tue 03:37:00 PM 47.4654 -115.9447 275° West  Level FlightAware Approximate
Tue 03:38:00 PM 47.4724 -116.0661 275° West  Level FlightAware Approximate
Tue 03:39:00 PM 47.4793 -116.1875 275° West  Level FlightAware Approximate
Tue 03:40:00 PM 47.4860 -116.3090 275° West  Level FlightAware Approximate
Tue 03:41:00 PM 47.4925 -116.4305 275° West  Level FlightAware Approximate
Tue 03:42:00 PM 47.4990 -116.5520 275° West  Level FlightAware Approximate
Tue 03:43:00 PM 47.5053 -116.6735 274° West  Level FlightAware Approximate
Tue 03:44:00 PM 47.5115 -116.7951 274° West  Level FlightAware Approximate
Tue 03:45:00 PM 47.5176 -116.9167 274° West  Level FlightAware Approximate
Tue 03:46:00 PM 47.5235 -117.0384 274° West  Level FlightAware Approximate
Tue 03:47:00 PM 47.5293 -117.1600 274° West  Level FlightAware Approximate
Tue 03:48:00 PM 47.5350 -117.2817 274° West  Level FlightAware Approximate
Tue 03:49:00 PM 47.5406 -117.4034 274° West  Level FlightAware Approximate
Tue 03:50:00 PM 47.5460 -117.5252 274° West  Level FlightAware Approximate
Tue 03:51:00 PM 47.5534 -117.6466 279° West  Level FlightAware Approximate
Tue 03:52:00 PM 47.5668 -117.7670 279° West  Level FlightAware Approximate
Tue 03:53:00 PM 47.5801 -117.8875 279° West  Level FlightAware Approximate
Tue 03:54:00 PM 47.5926 -118.0081 279° West  Level FlightAware Approximate
Tue 03:55:00 PM 47.6047 -118.1290 278° West  Level FlightAware Approximate
Tue 03:56:00 PM 47.6166 -118.2498 278° West  Level FlightAware Approximate
Tue 03:57:00 PM 47.6285 -118.3708 278° West  Level FlightAware Approximate
Tue 03:58:00 PM 47.6402 -118.4917 278° West  Level FlightAware Approximate
Tue 03:59:00 PM 47.6518 -118.6128 278° West  Level FlightAware Approximate
Tue 04:00:00 PM 47.6632 -118.7338 278° West  Level FlightAware Approximate
Tue 04:01:00 PM 47.6745 -118.8550 278° West  Level FlightAware Approximate
Tue 04:02:00 PM 47.6850 -118.9763 276° West  Level FlightAware Approximate
Tue 04:03:00 PM 47.6928 -119.0981 275° West  Level FlightAware Approximate
Tue 04:04:00 PM 47.7005 -119.2199 275° West  Level FlightAware Approximate
Tue 04:05:00 PM 47.7081 -119.3418 275° West  Level FlightAware Approximate
Tue 04:06:00 PM 47.7155 -119.4637 275° West  Level FlightAware Approximate
Tue 04:07:00 PM 47.7248 -119.5853 277° West  Level FlightAware Approximate
Tue 04:08:00 PM 47.7343 -119.7069 277° West  Level FlightAware Approximate
Tue 04:09:00 PM 47.7437 -119.8286 277° West  Level FlightAware Approximate
Tue 04:10:00 PM 47.7530 -119.9503 277° West  Level FlightAware Approximate
Tue 04:11:00 PM 47.7621 -120.0721 276° West  Level FlightAware Approximate
Tue 04:12:00 PM 47.7833 -120.1884 270° West  Level FlightAware Approximate
Tue 04:13:00 PM 47.7834 -120.3110 270° West  Level FlightAware Approximate
Tue 04:14:00 PM 47.7924 -120.4326 278° West  Level FlightAware Approximate
Tue 04:15:00 PM 47.8025 -120.5543 276° West  Level FlightAware Approximate
Tue 04:16:00 PM 47.8107 -120.6763 276° West  Level FlightAware Approximate
Tue 04:17:00 PM 47.8176 -120.7948 277° West  Level FlightAware Approximate
Tue 04:18:00 PM 47.8275 -120.9129 277° West  Level FlightAware Approximate
Tue 04:19:00 PM 47.8333 -121.0313 270° West  Level FlightAware Approximate
Tue 04:20:00 PM 47.8457 -121.1487 281° West  Level FlightAware Approximate
Tue 04:21:00 PM 47.8560 -121.2667 276° West  Level FlightAware Approximate
Tue 04:22:00 PM 47.8644 -121.3851 276° West  Level FlightAware Approximate
Tue 04:23:00 PM 47.8725 -121.5036 276° West  Level FlightAware Approximate
Tue 04:24:00 PM 47.8804 -121.6222 276° West  Level FlightAware Approximate
Tue 04:25:00 PM 47.8605 -121.7229 214° Southwest  Level FlightAware Approximate
Tue 04:26:00 PM 47.7986 -121.7969 228° Southwest  Level FlightAware Approximate
Tue 04:27:00 PM 47.7441 -121.8838 225° Southwest  Level FlightAware Approximate
Tue 04:28:00 PM 47.6853 -121.9641 222° Southwest  Level FlightAware Approximate
Tue 04:29:00 PM 47.6250 -122.0417 214° Southwest  Level FlightAware Approximate
Tue 04:30:00 PM 47.5610 -122.1114 233° Southwest  Level FlightAware Approximate
Tue 04:31:00 PM 47.5110 -122.1872 228° Southwest  Level FlightAware Approximate
Tue 04:32:00 PM 47.4799 -122.2379 222° Southwest  Level FlightAware Approximate
Tue 04:33:00 PM 47.4333 -122.3000 222° Southwest  Level FlightAware Approximate
Tue 04:34:00 PM 47.4499 -122.3118 222° Southwest  Level Estimated
Tue 04:35:00 PM 47.4499 -122.3118 222° Southwest  Level Estimated
Tue 04:36:00 PM 47.4499 -122.3118 222° Southwest  Level Estimated
Tue 04:37:00 PM 47.4499 -122.3118 222° Southwest  Level Estimated
Tue 04:38:00 PM 47.4499 -122.3118 222° Southwest  Level Estimated
Tue 04:39:00 PM 47.4499 -122.3118 222° Southwest  Level Estimated
Tue 04:40:00 PM 47.4499 -122.3118 222° Southwest  Level Estimated
Tue 04:41:00 PM 47.4499 -122.3118 222° Southwest  Level Estimated
Tue 04:42:00 PM 47.4499 -122.3118 222° Southwest  Level Estimated
Tue 04:43:00 PM 47.4499 -122.3118 222° Southwest  Level Estimated
Tue 04:44:00 PM 47.4499 -122.3118 180° South  Level Estimated
Tue 04:45:00 PM 47.4499 -122.3118 North  Level Estimated
Tue 04:46:00 PM 47.4499 -122.3118 180° South  Level Estimated
Tue 04:47:00 PM 47.4499 -122.3118 North  Level Estimated
Tue 04:48:00 PM 47.4499 -122.3118 180° South  Level Estimated
Tue 04:49:00 PM 47.4499 -122.3118 North  Level Estimated
Tue 04:50:00 PM 47.4499 -122.3118 180° South  Level Estimated
Tue 04:51:00 PM 47.4499 -122.3118 North  Level Estimated
Tue 04:52:00 PM 47.4499 -122.3118 180° South  Level Estimated
Tue 04:53:00 PM 47.4499 -122.3118 North  Level Estimated
Tue 04:54:00 PM 47.4499 -122.3118 180° South  Level Estimated
Tue 04:55:00 PM 47.4499 -122.3118 North  Level Estimated
Tue 04:56:00 PM 47.4499 -122.3118 180° South  Level Estimated
Tue 04:57:00 PM 47.4499 -122.3118 North  Level Estimated

Login

Don't have an account? Register now (free) for customized features, flight alerts, and more!